sensor_id;sensor_type;location;lat;lon;timestamp;P1;P2;P0
76101;PMS7003;64830;46.910;6.354;2023-08-31T00:00:39;4.75;3.00;3.00
76101;PMS7003;64830;46.910;6.354;2023-08-31T00:03:06;4.50;4.50;4.00
76101;PMS7003;64830;46.910;6.354;2023-08-31T00:05:31;5.00;4.00;4.00
76101;PMS7003;64830;46.910;6.354;2023-08-31T00:07:57;4.25;4.00;3.00
76101;PMS7003;64830;46.910;6.354;2023-08-31T00:10:22;5.00;4.00;3.00
76101;PMS7003;64830;46.910;6.354;2023-08-31T00:12:48;5.50;4.25;3.00
76101;PMS7003;64830;46.910;6.354;2023-08-31T00:15:14;4.50;4.50;3.50
76101;PMS7003;64830;46.910;6.354;2023-08-31T00:17:40;3.00;3.00;2.75
76101;PMS7003;64830;46.910;6.354;2023-08-31T00:20:06;5.25;4.00;3.00
76101;PMS7003;64830;46.910;6.354;2023-08-31T00:22:33;2.75;2.75;2.75
76101;PMS7003;64830;46.910;6.354;2023-08-31T00:24:59;4.00;4.00;3.00
76101;PMS7003;64830;46.910;6.354;2023-08-31T00:27:24;3.00;3.00;2.00
76101;PMS7003;64830;46.910;6.354;2023-08-31T00:29:49;4.00;3.50;3.00
76101;PMS7003;64830;46.910;6.354;2023-08-31T00:32:16;6.25;3.25;3.00
76101;PMS7003;64830;46.910;6.354;2023-08-31T00:34:43;4.50;4.25;3.50
76101;PMS7003;64830;46.910;6.354;2023-08-31T00:37:09;4.00;4.00;3.00
76101;PMS7003;64830;46.910;6.354;2023-08-31T00:39:34;4.75;4.00;3.50
76101;PMS7003;64830;46.910;6.354;2023-08-31T00:42:00;5.25;4.75;3.00
76101;PMS7003;64830;46.910;6.354;2023-08-31T00:44:26;3.75;3.75;3.00
76101;PMS7003;64830;46.910;6.354;2023-08-31T00:46:51;3.50;3.50;3.00
76101;PMS7003;64830;46.910;6.354;2023-08-31T00:49:17;4.25;4.25;3.00
76101;PMS7003;64830;46.910;6.354;2023-08-31T00:51:43;3.00;3.00;3.00
76101;PMS7003;64830;46.910;6.354;2023-08-31T00:54:18;4.50;4.50;3.00
76101;PMS7003;64830;46.910;6.354;2023-08-31T00:56:44;5.25;4.00;4.00
76101;PMS7003;64830;46.910;6.354;2023-08-31T00:59:10;5.25;4.00;3.00
76101;PMS7003;64830;46.910;6.354;2023-08-31T01:02:11;4.00;3.25;3.00
76101;PMS7003;64830;46.910;6.354;2023-08-31T01:04:38;3.25;3.25;3.00
76101;PMS7003;64830;46.910;6.354;2023-08-31T01:07:23;4.25;3.50;3.00
76101;PMS7003;64830;46.910;6.354;2023-08-31T01:15:54;4.00;4.00;4.00
76101;PMS7003;64830;46.910;6.354;2023-08-31T01:18:24;4.00;4.00;3.00
76101;PMS7003;64830;46.910;6.354;2023-08-31T01:23:55;4.00;4.00;3.00
76101;PMS7003;64830;46.910;6.354;2023-08-31T01:26:22;3.25;3.25;2.25
76101;PMS7003;64830;46.910;6.354;2023-08-31T01:28:49;4.00;4.00;3.00
76101;PMS7003;64830;46.910;6.354;2023-08-31T01:31:15;4.75;4.50;3.00
76101;PMS7003;64830;46.910;6.354;2023-08-31T01:33:41;4.00;4.00;3.00
76101;PMS7003;64830;46.910;6.354;2023-08-31T01:36:08;6.50;3.25;3.00
76101;PMS7003;64830;46.910;6.354;2023-08-31T01:38:42;6.00;4.50;3.50
76101;PMS7003;64830;46.910;6.354;2023-08-31T01:41:13;4.50;2.50;2.00
76101;PMS7003;64830;46.910;6.354;2023-08-31T01:43:43;4.25;3.00;2.75
76101;PMS7003;64830;46.910;6.354;2023-08-31T01:46:09;3.75;3.00;2.75
76101;PMS7003;64830;46.910;6.354;2023-08-31T01:48:41;4.00;4.00;3.00
76101;PMS7003;64830;46.910;6.354;2023-08-31T01:51:07;5.00;4.00;3.75
76101;PMS7003;64830;46.910;6.354;2023-08-31T01:53:34;3.50;3.25;2.75
76101;PMS7003;64830;46.910;6.354;2023-08-31T01:55:59;2.50;2.50;2.00
76101;PMS7003;64830;46.910;6.354;2023-08-31T01:58:25;3.75;3.75;3.75
76101;PMS7003;64830;46.910;6.354;2023-08-31T02:00:50;5.00;5.00;4.00
76101;PMS7003;64830;46.910;6.354;2023-08-31T02:03:16;4.00;4.00;3.25
76101;PMS7003;64830;46.910;6.354;2023-08-31T02:05:41;3.25;2.25;2.00
76101;PMS7003;64830;46.910;6.354;2023-08-31T02:08:06;4.00;2.25;2.00
76101;PMS7003;64830;46.910;6.354;2023-08-31T02:10:32;3.25;3.25;3.00
76101;PMS7003;64830;46.910;6.354;2023-08-31T02:12:59;3.00;3.00;2.25
76101;PMS7003;64830;46.910;6.354;2023-08-31T02:15:25;4.75;4.00;3.00
76101;PMS7003;64830;46.910;6.354;2023-08-31T02:17:50;5.00;4.00;3.00
76101;PMS7003;64830;46.910;6.354;2023-08-31T02:20:19;6.00;5.00;4.00
76101;PMS7003;64830;46.910;6.354;2023-08-31T02:22:45;5.25;5.00;4.00
76101;PMS7003;64830;46.910;6.354;2023-08-31T02:25:11;4.25;4.25;4.00
76101;PMS7003;64830;46.910;6.354;2023-08-31T02:27:38;4.75;4.75;4.50
76101;PMS7003;64830;46.910;6.354;2023-08-31T02:30:04;6.50;5.00;4.00
76101;PMS7003;64830;46.910;6.354;2023-08-31T02:32:30;7.00;7.00;5.75
76101;PMS7003;64830;46.910;6.354;2023-08-31T02:34:56;5.50;5.50;5.00
76101;PMS7003;64830;46.910;6.354;2023-08-31T02:37:22;8.50;8.50;6.75
76101;PMS7003;64830;46.910;6.354;2023-08-31T02:39:47;7.75;7.75;6.25
76101;PMS7003;64830;46.910;6.354;2023-08-31T02:42:13;10.25;10.25;8.00
76101;PMS7003;64830;46.910;6.354;2023-08-31T02:44:39;10.00;10.00;7.00
76101;PMS7003;64830;46.910;6.354;2023-08-31T02:47:05;12.00;11.00;8.00
76101;PMS7003;64830;46.910;6.354;2023-08-31T02:49:30;18.25;15.25;11.50
76101;PMS7003;64830;46.910;6.354;2023-08-31T02:51:56;15.25;13.50;9.50
76101;PMS7003;64830;46.910;6.354;2023-08-31T02:54:21;14.50;14.25;8.25
76101;PMS7003;64830;46.910;6.354;2023-08-31T02:56:47;13.50;10.00;8.00
76101;PMS7003;64830;46.910;6.354;2023-08-31T02:59:12;5.75;5.00;4.00
76101;PMS7003;64830;46.910;6.354;2023-08-31T03:01:38;4.00;4.00;3.25
76101;PMS7003;64830;46.910;6.354;2023-08-31T03:04:04;5.00;5.00;3.00
76101;PMS7003;64830;46.910;6.354;2023-08-31T03:06:31;5.00;4.75;3.75
76101;PMS7003;64830;46.910;6.354;2023-08-31T03:08:57;5.00;5.00;4.25
76101;PMS7003;64830;46.910;6.354;2023-08-31T03:11:23;5.00;4.00;4.00
76101;PMS7003;64830;46.910;6.354;2023-08-31T03:13:48;4.00;4.00;3.50
76101;PMS7003;64830;46.910;6.354;2023-08-31T03:16:14;5.00;5.00;4.00
76101;PMS7003;64830;46.910;6.354;2023-08-31T03:18:39;6.00;4.00;3.00
76101;PMS7003;64830;46.910;6.354;2023-08-31T03:21:04;3.25;3.00;3.00
76101;PMS7003;64830;46.910;6.354;2023-08-31T03:23:30;4.50;4.50;3.00
76101;PMS7003;64830;46.910;6.354;2023-08-31T03:25:55;4.50;4.00;4.00
76101;PMS7003;64830;46.910;6.354;2023-08-31T03:28:21;5.00;4.00;4.00
76101;PMS7003;64830;46.910;6.354;2023-08-31T03:30:53;6.00;6.00;5.00
76101;PMS7003;64830;46.910;6.354;2023-08-31T03:33:19;4.00;3.50;3.00
76101;PMS7003;64830;46.910;6.354;2023-08-31T03:35:45;4.50;4.25;4.00
76101;PMS7003;64830;46.910;6.354;2023-08-31T03:38:10;4.00;4.00;3.00
76101;PMS7003;64830;46.910;6.354;2023-08-31T03:40:35;6.25;5.00;5.00
76101;PMS7003;64830;46.910;6.354;2023-08-31T03:43:01;5.75;5.75;4.75
76101;PMS7003;64830;46.910;6.354;2023-08-31T03:45:26;5.00;5.00;4.00
76101;PMS7003;64830;46.910;6.354;2023-08-31T03:47:52;4.50;4.00;3.00
76101;PMS7003;64830;46.910;6.354;2023-08-31T03:50:18;4.00;4.00;3.00
76101;PMS7003;64830;46.910;6.354;2023-08-31T03:52:43;5.00;5.00;4.00
76101;PMS7003;64830;46.910;6.354;2023-08-31T03:55:09;5.00;4.00;3.00
76101;PMS7003;64830;46.910;6.354;2023-08-31T03:57:35;6.00;5.50;4.75
76101;PMS7003;64830;46.910;6.354;2023-08-31T04:00:00;3.00;3.00;2.50
76101;PMS7003;64830;46.910;6.354;2023-08-31T04:02:26;2.25;2.00;2.00
76101;PMS7003;64830;46.910;6.354;2023-08-31T04:04:52;3.75;3.75;3.00
76101;PMS7003;64830;46.910;6.354;2023-08-31T04:07:17;5.00;5.00;3.75
76101;PMS7003;64830;46.910;6.354;2023-08-31T04:09:43;5.00;5.00;4.00
76101;PMS7003;64830;46.910;6.354;2023-08-31T04:12:09;5.50;4.25;3.25
76101;PMS7003;64830;46.910;6.354;2023-08-31T04:14:34;6.50;5.00;4.25
76101;PMS7003;64830;46.910;6.354;2023-08-31T04:16:59;4.50;4.50;3.75
76101;PMS7003;64830;46.910;6.354;2023-08-31T04:19:25;4.00;4.00;4.00
76101;PMS7003;64830;46.910;6.354;2023-08-31T04:21:50;4.50;4.00;4.00
76101;PMS7003;64830;46.910;6.354;2023-08-31T04:24:16;5.50;5.50;4.25
76101;PMS7003;64830;46.910;6.354;2023-08-31T04:26:42;5.00;5.00;4.00
76101;PMS7003;64830;46.910;6.354;2023-08-31T04:29:08;7.50;6.25;4.50
76101;PMS7003;64830;46.910;6.354;2023-08-31T04:31:33;5.25;5.25;4.25
76101;PMS7003;64830;46.910;6.354;2023-08-31T04:33:59;5.50;5.00;4.00
76101;PMS7003;64830;46.910;6.354;2023-08-31T04:36:24;5.00;4.75;3.00
76101;PMS7003;64830;46.910;6.354;2023-08-31T04:38:52;6.00;6.00;4.00
76101;PMS7003;64830;46.910;6.354;2023-08-31T04:41:18;5.75;5.25;4.75
76101;PMS7003;64830;46.910;6.354;2023-08-31T04:43:44;5.75;5.50;4.50
76101;PMS7003;64830;46.910;6.354;2023-08-31T04:46:09;5.25;4.25;3.50
76101;PMS7003;64830;46.910;6.354;2023-08-31T04:48:35;5.25;5.25;4.00
76101;PMS7003;64830;46.910;6.354;2023-08-31T04:51:01;4.00;4.00;3.75
76101;PMS7003;64830;46.910;6.354;2023-08-31T04:53:28;5.00;5.00;4.00
76101;PMS7003;64830;46.910;6.354;2023-08-31T04:55:55;4.00;3.75;2.75
76101;PMS7003;64830;46.910;6.354;2023-08-31T04:58:20;5.00;4.00;3.00
76101;PMS7003;64830;46.910;6.354;2023-08-31T05:00:45;5.00;5.00;4.00
76101;PMS7003;64830;46.910;6.354;2023-08-31T05:03:12;6.50;5.00;4.00
76101;PMS7003;64830;46.910;6.354;2023-08-31T05:05:37;5.00;3.50;3.00
76101;PMS7003;64830;46.910;6.354;2023-08-31T05:08:03;3.75;3.75;3.00
76101;PMS7003;64830;46.910;6.354;2023-08-31T05:10:29;6.25;6.25;4.00
76101;PMS7003;64830;46.910;6.354;2023-08-31T05:12:55;6.25;5.25;5.00
76101;PMS7003;64830;46.910;6.354;2023-08-31T05:15:20;6.00;5.00;3.25
76101;PMS7003;64830;46.910;6.354;2023-08-31T05:17:46;5.25;4.00;4.00
76101;PMS7003;64830;46.910;6.354;2023-08-31T05:20:12;5.00;4.00;3.25
76101;PMS7003;64830;46.910;6.354;2023-08-31T05:22:38;5.00;5.00;4.00
76101;PMS7003;64830;46.910;6.354;2023-08-31T05:25:04;4.00;4.00;2.25
76101;PMS7003;64830;46.910;6.354;2023-08-31T05:27:29;6.50;5.50;4.25
76101;PMS7003;64830;46.910;6.354;2023-08-31T05:29:55;4.50;4.50;3.25
76101;PMS7003;64830;46.910;6.354;2023-08-31T05:32:20;5.00;5.00;3.25
76101;PMS7003;64830;46.910;6.354;2023-08-31T05:34:46;5.00;5.00;3.75
76101;PMS7003;64830;46.910;6.354;2023-08-31T05:37:11;4.00;4.00;3.00
76101;PMS7003;64830;46.910;6.354;2023-08-31T05:39:37;5.25;4.00;3.50
76101;PMS7003;64830;46.910;6.354;2023-08-31T05:42:02;5.75;5.75;4.00
76101;PMS7003;64830;46.910;6.354;2023-08-31T05:44:28;4.50;4.50;3.50
76101;PMS7003;64830;46.910;6.354;2023-08-31T05:46:53;6.25;4.75;3.25
76101;PMS7003;64830;46.910;6.354;2023-08-31T05:49:18;6.75;5.75;5.00
76101;PMS7003;64830;46.910;6.354;2023-08-31T05:51:44;5.50;4.00;3.50
76101;PMS7003;64830;46.910;6.354;2023-08-31T05:54:09;6.25;5.00;4.00
76101;PMS7003;64830;46.910;6.354;2023-08-31T05:56:38;6.00;5.00;4.00
76101;PMS7003;64830;46.910;6.354;2023-08-31T05:59:07;6.50;5.25;4.50
76101;PMS7003;64830;46.910;6.354;2023-08-31T06:01:35;7.00;5.00;4.50
76101;PMS7003;64830;46.910;6.354;2023-08-31T06:04:01;4.00;4.00;3.50
76101;PMS7003;64830;46.910;6.354;2023-08-31T06:06:28;6.75;4.50;4.00
76101;PMS7003;64830;46.910;6.354;2023-08-31T06:08:53;5.00;5.00;4.00
76101;PMS7003;64830;46.910;6.354;2023-08-31T06:11:19;4.25;4.25;3.75
76101;PMS7003;64830;46.910;6.354;2023-08-31T06:13:45;4.00;4.00;3.25
76101;PMS7003;64830;46.910;6.354;2023-08-31T06:16:10;3.50;3.50;2.75
76101;PMS7003;64830;46.910;6.354;2023-08-31T06:18:36;4.00;3.00;2.00
76101;PMS7003;64830;46.910;6.354;2023-08-31T06:21:01;2.75;2.75;1.50
76101;PMS7003;64830;46.910;6.354;2023-08-31T06:23:27;3.25;3.25;2.50
76101;PMS7003;64830;46.910;6.354;2023-08-31T06:25:52;4.75;4.00;3.25
76101;PMS7003;64830;46.910;6.354;2023-08-31T06:28:17;4.00;4.00;3.00
76101;PMS7003;64830;46.910;6.354;2023-08-31T06:30:43;3.50;3.50;3.00
76101;PMS7003;64830;46.910;6.354;2023-08-31T06:33:13;4.00;4.00;3.75
76101;PMS7003;64830;46.910;6.354;2023-08-31T06:35:39;4.25;4.00;3.00
76101;PMS7003;64830;46.910;6.354;2023-08-31T06:38:05;3.75;3.75;3.00
76101;PMS7003;64830;46.910;6.354;2023-08-31T06:40:30;5.00;5.00;4.00
76101;PMS7003;64830;46.910;6.354;2023-08-31T06:42:55;4.00;3.00;3.00
76101;PMS7003;64830;46.910;6.354;2023-08-31T06:45:21;3.50;3.00;2.50
76101;PMS7003;64830;46.910;6.354;2023-08-31T06:47:47;3.25;2.00;2.00
76101;PMS7003;64830;46.910;6.354;2023-08-31T06:50:12;4.25;3.00;2.25
76101;PMS7003;64830;46.910;6.354;2023-08-31T06:52:37;3.00;2.50;2.00
76101;PMS7003;64830;46.910;6.354;2023-08-31T06:55:03;3.25;3.25;3.00
76101;PMS7003;64830;46.910;6.354;2023-08-31T06:57:31;2.00;2.00;1.50
76101;PMS7003;64830;46.910;6.354;2023-08-31T06:59:56;3.00;3.00;3.00
76101;PMS7003;64830;46.910;6.354;2023-08-31T07:02:22;3.75;3.50;3.00
76101;PMS7003;64830;46.910;6.354;2023-08-31T07:04:51;3.50;3.00;3.00
76101;PMS7003;64830;46.910;6.354;2023-08-31T07:07:17;4.00;4.00;3.00
76101;PMS7003;64830;46.910;6.354;2023-08-31T07:09:43;3.50;3.00;3.00
76101;PMS7003;64830;46.910;6.354;2023-08-31T07:12:10;3.50;3.50;3.00
76101;PMS7003;64830;46.910;6.354;2023-08-31T07:14:36;1.75;1.75;1.00
76101;PMS7003;64830;46.910;6.354;2023-08-31T07:17:01;7.00;4.00;3.50
76101;PMS7003;64830;46.910;6.354;2023-08-31T07:19:27;5.00;5.00;3.75
76101;PMS7003;64830;46.910;6.354;2023-08-31T07:21:52;6.50;5.50;4.00
76101;PMS7003;64830;46.910;6.354;2023-08-31T07:24:20;7.50;6.25;4.75
76101;PMS7003;64830;46.910;6.354;2023-08-31T07:26:46;5.50;5.50;4.00
76101;PMS7003;64830;46.910;6.354;2023-08-31T07:29:11;4.25;4.25;3.75
76101;PMS7003;64830;46.910;6.354;2023-08-31T07:31:37;6.75;6.75;5.00
76101;PMS7003;64830;46.910;6.354;2023-08-31T07:34:02;3.00;3.00;1.00
76101;PMS7003;64830;46.910;6.354;2023-08-31T07:36:28;5.75;5.75;4.75
76101;PMS7003;64830;46.910;6.354;2023-08-31T07:38:53;7.25;7.00;6.50
76101;PMS7003;64830;46.910;6.354;2023-08-31T07:41:19;5.25;5.25;3.75
76101;PMS7003;64830;46.910;6.354;2023-08-31T07:43:44;3.50;3.00;2.75
76101;PMS7003;64830;46.910;6.354;2023-08-31T07:46:10;5.00;5.00;4.00
76101;PMS7003;64830;46.910;6.354;2023-08-31T07:48:35;7.75;7.25;7.00
76101;PMS7003;64830;46.910;6.354;2023-08-31T07:51:00;11.75;10.25;9.00
76101;PMS7003;64830;46.910;6.354;2023-08-31T07:53:26;6.00;5.00;4.25
76101;PMS7003;64830;46.910;6.354;2023-08-31T07:55:52;3.50;3.50;3.00
76101;PMS7003;64830;46.910;6.354;2023-08-31T07:58:19;3.75;3.50;3.00
76101;PMS7003;64830;46.910;6.354;2023-08-31T08:00:44;6.50;4.00;3.75
76101;PMS7003;64830;46.910;6.354;2023-08-31T08:03:10;6.00;6.00;4.25
76101;PMS7003;64830;46.910;6.354;2023-08-31T08:05:36;5.50;5.00;4.00
76101;PMS7003;64830;46.910;6.354;2023-08-31T08:08:02;5.25;4.00;3.00
76101;PMS7003;64830;46.910;6.354;2023-08-31T08:10:28;3.75;3.00;2.25
76101;PMS7003;64830;46.910;6.354;2023-08-31T08:12:53;5.50;5.00;4.25
76101;PMS7003;64830;46.910;6.354;2023-08-31T08:15:21;6.00;6.00;4.00
76101;PMS7003;64830;46.910;6.354;2023-08-31T08:17:46;10.25;7.00;6.00
76101;PMS7003;64830;46.910;6.354;2023-08-31T08:20:13;8.00;7.75;7.00
76101;PMS7003;64830;46.910;6.354;2023-08-31T08:22:38;6.25;6.25;5.50
76101;PMS7003;64830;46.910;6.354;2023-08-31T08:25:04;7.50;6.75;5.00
76101;PMS7003;64830;46.910;6.354;2023-08-31T08:27:30;5.00;5.00;4.50
76101;PMS7003;64830;46.910;6.354;2023-08-31T08:29:58;5.25;4.50;3.25
76101;PMS7003;64830;46.910;6.354;2023-08-31T08:32:23;7.25;6.25;4.25
76101;PMS7003;64830;46.910;6.354;2023-08-31T08:34:50;5.00;5.00;4.00
76101;PMS7003;64830;46.910;6.354;2023-08-31T08:37:15;5.00;5.00;4.00
76101;PMS7003;64830;46.910;6.354;2023-08-31T08:39:41;7.00;7.00;5.00
76101;PMS7003;64830;46.910;6.354;2023-08-31T08:42:06;5.25;5.25;5.00
76101;PMS7003;64830;46.910;6.354;2023-08-31T08:44:34;6.00;6.00;5.00
76101;PMS7003;64830;46.910;6.354;2023-08-31T08:47:01;4.25;3.00;3.00
76101;PMS7003;64830;46.910;6.354;2023-08-31T08:49:27;3.00;2.75;2.50
76101;PMS7003;64830;46.910;6.354;2023-08-31T08:51:55;3.00;3.00;2.25
76101;PMS7003;64830;46.910;6.354;2023-08-31T08:54:24;3.00;3.00;2.00
76101;PMS7003;64830;46.910;6.354;2023-08-31T08:56:50;4.50;4.50;3.75
76101;PMS7003;64830;46.910;6.354;2023-08-31T08:59:15;3.50;3.00;3.00
76101;PMS7003;64830;46.910;6.354;2023-08-31T09:01:41;5.00;3.00;2.50
76101;PMS7003;64830;46.910;6.354;2023-08-31T09:04:09;4.00;3.50;3.00
76101;PMS7003;64830;46.910;6.354;2023-08-31T09:06:34;5.00;4.00;3.50
76101;PMS7003;64830;46.910;6.354;2023-08-31T09:09:00;5.00;4.00;3.00
76101;PMS7003;64830;46.910;6.354;2023-08-31T09:11:26;5.00;4.00;3.50
76101;PMS7003;64830;46.910;6.354;2023-08-31T09:13:52;3.00;3.00;2.00
76101;PMS7003;64830;46.910;6.354;2023-08-31T09:16:36;4.00;4.00;3.00
76101;PMS7003;64830;46.910;6.354;2023-08-31T09:19:02;4.50;3.75;2.25
76101;PMS7003;64830;46.910;6.354;2023-08-31T09:21:43;8.00;6.00;4.75
76101;PMS7003;64830;46.910;6.354;2023-08-31T09:24:10;3.50;3.50;3.00
76101;PMS7003;64830;46.910;6.354;2023-08-31T09:26:38;3.00;2.75;2.00
76101;PMS7003;64830;46.910;6.354;2023-08-31T09:29:08;3.75;2.50;2.00
76101;PMS7003;64830;46.910;6.354;2023-08-31T09:31:33;4.00;2.50;2.00
76101;PMS7003;64830;46.910;6.354;2023-08-31T09:33:58;2.50;2.00;2.00
76101;PMS7003;64830;46.910;6.354;2023-08-31T09:36:24;2.75;2.75;2.00
76101;PMS7003;64830;46.910;6.354;2023-08-31T09:38:56;4.00;3.25;2.75
76101;PMS7003;64830;46.910;6.354;2023-08-31T09:41:22;2.00;2.00;2.00
76101;PMS7003;64830;46.910;6.354;2023-08-31T09:43:48;3.00;2.00;2.00
76101;PMS7003;64830;46.910;6.354;2023-08-31T09:46:13;4.00;4.00;3.25
76101;PMS7003;64830;46.910;6.354;2023-08-31T09:48:39;1.25;1.25;1.25
76101;PMS7003;64830;46.910;6.354;2023-08-31T09:51:07;2.75;2.75;1.75
76101;PMS7003;64830;46.910;6.354;2023-08-31T09:53:35;2.25;2.25;2.00
76101;PMS7003;64830;46.910;6.354;2023-08-31T09:56:02;1.00;1.00;1.00
76101;PMS7003;64830;46.910;6.354;2023-08-31T09:58:31;2.00;2.00;2.00
76101;PMS7003;64830;46.910;6.354;2023-08-31T10:00:58;2.25;2.25;2.00
76101;PMS7003;64830;46.910;6.354;2023-08-31T10:03:24;3.00;3.00;2.00
76101;PMS7003;64830;46.910;6.354;2023-08-31T10:05:51;4.00;2.75;2.00
76101;PMS7003;64830;46.910;6.354;2023-08-31T10:08:17;3.25;3.25;3.00
76101;PMS7003;64830;46.910;6.354;2023-08-31T10:10:43;4.00;2.75;2.00
76101;PMS7003;64830;46.910;6.354;2023-08-31T10:13:09;1.00;1.00;1.00
76101;PMS7003;64830;46.910;6.354;2023-08-31T10:15:36;3.25;2.25;2.00
76101;PMS7003;64830;46.910;6.354;2023-08-31T10:18:03;2.00;2.00;1.50
76101;PMS7003;64830;46.910;6.354;2023-08-31T10:20:29;2.75;2.75;2.00
76101;PMS7003;64830;46.910;6.354;2023-08-31T10:23:06;2.00;2.00;2.00
76101;PMS7003;64830;46.910;6.354;2023-08-31T10:28:19;3.00;3.00;2.25
76101;PMS7003;64830;46.910;6.354;2023-08-31T10:31:07;3.25;3.25;3.25
76101;PMS7003;64830;46.910;6.354;2023-08-31T10:33:54;5.00;3.50;3.00
76101;PMS7003;64830;46.910;6.354;2023-08-31T10:36:22;3.00;3.00;3.00
76101;PMS7003;64830;46.910;6.354;2023-08-31T10:39:00;2.00;2.00;2.00
76101;PMS7003;64830;46.910;6.354;2023-08-31T10:41:35;4.25;1.25;1.00
76101;PMS7003;64830;46.910;6.354;2023-08-31T10:44:01;2.00;2.00;2.00
76101;PMS7003;64830;46.910;6.354;2023-08-31T10:46:35;3.00;2.00;2.00
76101;PMS7003;64830;46.910;6.354;2023-08-31T10:51:36;5.00;4.00;3.00
76101;PMS7003;64830;46.910;6.354;2023-08-31T10:54:06;1.25;1.00;1.00
76101;PMS7003;64830;46.910;6.354;2023-08-31T10:56:38;3.75;2.75;2.25
76101;PMS7003;64830;46.910;6.354;2023-08-31T10:59:16;2.75;2.75;2.00
76101;PMS7003;64830;46.910;6.354;2023-08-31T11:01:51;2.75;2.00;2.00
76101;PMS7003;64830;46.910;6.354;2023-08-31T11:04:17;3.50;3.50;3.00
76101;PMS7003;64830;46.910;6.354;2023-08-31T11:06:43;2.00;2.00;2.00
76101;PMS7003;64830;46.910;6.354;2023-08-31T11:09:18;2.00;2.00;2.00
76101;PMS7003;64830;46.910;6.354;2023-08-31T11:11:45;2.00;2.00;2.00
76101;PMS7003;64830;46.910;6.354;2023-08-31T11:14:10;5.00;4.00;3.00
76101;PMS7003;64830;46.910;6.354;2023-08-31T11:16:39;4.00;4.00;3.00
76101;PMS7003;64830;46.910;6.354;2023-08-31T11:19:05;2.00;2.00;1.75
76101;PMS7003;64830;46.910;6.354;2023-08-31T11:21:30;0.75;0.75;0.50
76101;PMS7003;64830;46.910;6.354;2023-08-31T11:23:57;2.00;2.00;2.00
76101;PMS7003;64830;46.910;6.354;2023-08-31T11:26:24;3.00;3.00;2.00
76101;PMS7003;64830;46.910;6.354;2023-08-31T11:28:50;5.75;3.00;2.75
76101;PMS7003;64830;46.910;6.354;2023-08-31T11:31:25;4.00;2.75;2.75
76101;PMS7003;64830;46.910;6.354;2023-08-31T11:33:51;3.75;3.75;3.00
76101;PMS7003;64830;46.910;6.354;2023-08-31T11:36:16;3.00;2.75;2.00
76101;PMS7003;64830;46.910;6.354;2023-08-31T11:38:44;2.75;2.00;1.75
76101;PMS7003;64830;46.910;6.354;2023-08-31T11:41:10;1.50;1.50;1.00
76101;PMS7003;64830;46.910;6.354;2023-08-31T11:43:36;2.75;2.00;2.00
76101;PMS7003;64830;46.910;6.354;2023-08-31T11:46:02;3.25;3.25;2.25
76101;PMS7003;64830;46.910;6.354;2023-08-31T11:48:29;2.00;2.00;2.00
76101;PMS7003;64830;46.910;6.354;2023-08-31T11:50:55;3.50;3.50;3.00
76101;PMS7003;64830;46.910;6.354;2023-08-31T11:53:21;3.00;3.00;2.25
76101;PMS7003;64830;46.910;6.354;2023-08-31T11:55:50;4.50;3.25;3.00
76101;PMS7003;64830;46.910;6.354;2023-08-31T11:58:17;3.00;3.00;2.75
76101;PMS7003;64830;46.910;6.354;2023-08-31T12:00:43;4.00;2.75;2.00
76101;PMS7003;64830;46.910;6.354;2023-08-31T12:03:09;3.75;3.00;2.25
76101;PMS7003;64830;46.910;6.354;2023-08-31T12:05:47;5.00;4.00;3.00
76101;PMS7003;64830;46.910;6.354;2023-08-31T12:08:14;2.00;2.00;1.75
76101;PMS7003;64830;46.910;6.354;2023-08-31T12:10:41;1.25;1.25;1.00
76101;PMS7003;64830;46.910;6.354;2023-08-31T12:13:07;3.50;3.50;2.50
76101;PMS7003;64830;46.910;6.354;2023-08-31T12:15:34;1.50;1.50;1.50
76101;PMS7003;64830;46.910;6.354;2023-08-31T12:18:06;2.00;2.00;1.50
76101;PMS7003;64830;46.910;6.354;2023-08-31T12:20:44;3.00;3.00;2.50
76101;PMS7003;64830;46.910;6.354;2023-08-31T12:23:11;3.00;2.00;1.25
76101;PMS7003;64830;46.910;6.354;2023-08-31T12:25:36;0.50;0.50;0.50
76101;PMS7003;64830;46.910;6.354;2023-08-31T12:28:02;2.00;2.00;1.50
76101;PMS7003;64830;46.910;6.354;2023-08-31T12:30:28;2.75;2.75;2.00
76101;PMS7003;64830;46.910;6.354;2023-08-31T12:32:54;3.00;2.50;2.00
76101;PMS7003;64830;46.910;6.354;2023-08-31T12:35:19;2.75;2.25;2.00
76101;PMS7003;64830;46.910;6.354;2023-08-31T12:37:45;1.00;1.00;1.00
76101;PMS7003;64830;46.910;6.354;2023-08-31T12:40:10;3.00;2.00;1.00
76101;PMS7003;64830;46.910;6.354;2023-08-31T12:42:36;2.75;2.00;1.25
76101;PMS7003;64830;46.910;6.354;2023-08-31T12:45:01;2.00;2.00;2.00
76101;PMS7003;64830;46.910;6.354;2023-08-31T12:47:30;2.00;2.00;1.25
76101;PMS7003;64830;46.910;6.354;2023-08-31T12:49:56;1.50;1.50;0.50
76101;PMS7003;64830;46.910;6.354;2023-08-31T12:52:21;1.25;1.25;1.25
76101;PMS7003;64830;46.910;6.354;2023-08-31T12:54:46;1.50;0.50;0.50
76101;PMS7003;64830;46.910;6.354;2023-08-31T12:57:12;0.75;0.75;0.75
76101;PMS7003;64830;46.910;6.354;2023-08-31T12:59:38;0.75;0.75;0.50
76101;PMS7003;64830;46.910;6.354;2023-08-31T13:02:03;3.25;2.00;1.75
76101;PMS7003;64830;46.910;6.354;2023-08-31T13:04:32;1.25;1.25;1.25
76101;PMS7003;64830;46.910;6.354;2023-08-31T13:06:57;1.00;1.00;1.00
76101;PMS7003;64830;46.910;6.354;2023-08-31T13:09:23;1.00;1.00;1.00
76101;PMS7003;64830;46.910;6.354;2023-08-31T13:11:48;1.75;1.75;1.25
76101;PMS7003;64830;46.910;6.354;2023-08-31T13:14:14;3.25;3.25;2.75
76101;PMS7003;64830;46.910;6.354;2023-08-31T13:16:40;3.75;2.50;1.75
76101;PMS7003;64830;46.910;6.354;2023-08-31T13:19:05;2.75;1.75;1.75
76101;PMS7003;64830;46.910;6.354;2023-08-31T13:21:30;2.00;2.00;1.25
76101;PMS7003;64830;46.910;6.354;2023-08-31T13:23:56;1.25;1.25;1.00
76101;PMS7003;64830;46.910;6.354;2023-08-31T13:26:21;1.00;1.00;1.00
76101;PMS7003;64830;46.910;6.354;2023-08-31T13:28:46;1.50;1.50;0.75
76101;PMS7003;64830;46.910;6.354;2023-08-31T13:31:12;2.00;2.00;2.00
76101;PMS7003;64830;46.910;6.354;2023-08-31T13:33:37;2.00;1.75;1.75
76101;PMS7003;64830;46.910;6.354;2023-08-31T13:36:03;2.75;2.75;2.50
76101;PMS7003;64830;46.910;6.354;2023-08-31T13:38:28;1.50;1.50;1.50
76101;PMS7003;64830;46.910;6.354;2023-08-31T13:40:54;2.00;2.00;1.75
76101;PMS7003;64830;46.910;6.354;2023-08-31T13:43:21;2.00;2.00;1.75
76101;PMS7003;64830;46.910;6.354;2023-08-31T13:45:47;1.50;1.50;1.00
76101;PMS7003;64830;46.910;6.354;2023-08-31T13:48:13;2.25;2.00;1.00
76101;PMS7003;64830;46.910;6.354;2023-08-31T13:50:38;2.75;2.75;2.25
76101;PMS7003;64830;46.910;6.354;2023-08-31T13:53:03;0.50;0.50;0.50
76101;PMS7003;64830;46.910;6.354;2023-08-31T13:55:29;1.25;1.25;1.00
76101;PMS7003;64830;46.910;6.354;2023-08-31T13:57:57;1.75;1.75;1.75
76101;PMS7003;64830;46.910;6.354;2023-08-31T14:00:28;1.00;1.00;0.50
76101;PMS7003;64830;46.910;6.354;2023-08-31T14:02:53;1.50;1.50;1.00
76101;PMS7003;64830;46.910;6.354;2023-08-31T14:05:19;3.00;1.75;1.75
76101;PMS7003;64830;46.910;6.354;2023-08-31T14:07:45;3.25;2.50;1.75
76101;PMS7003;64830;46.910;6.354;2023-08-31T14:10:10;3.00;3.00;2.00
76101;PMS7003;64830;46.910;6.354;2023-08-31T14:12:36;3.00;3.00;2.00
76101;PMS7003;64830;46.910;6.354;2023-08-31T14:15:01;1.50;1.50;1.00
76101;PMS7003;64830;46.910;6.354;2023-08-31T14:17:29;2.25;2.25;2.00
76101;PMS7003;64830;46.910;6.354;2023-08-31T14:19:55;1.00;1.00;1.00
76101;PMS7003;64830;46.910;6.354;2023-08-31T14:22:20;0.50;0.50;0.00
76101;PMS7003;64830;46.910;6.354;2023-08-31T14:24:45;1.50;1.50;1.50
76101;PMS7003;64830;46.910;6.354;2023-08-31T14:27:11;2.50;2.25;2.00
76101;PMS7003;64830;46.910;6.354;2023-08-31T14:29:36;2.00;2.00;2.00
76101;PMS7003;64830;46.910;6.354;2023-08-31T14:32:02;1.00;1.00;1.00